Time;durP1;ratioP1;P1;durP2;ratioP2;P2;SDS_P1;SDS_P2;PMS_P1;PMS_P2;Temp;Humidity;BMP_temperature;BMP_pressure;BME280_temperature;BME280_humidity;BME280_pressure;Samples;Min_cycle;Max_cycle;Signal;HPM_P1;HPM_P2
2023/04/06 00:01:31;;;;;;;;;;;;;;;;;;;;;
2023/04/06 00:04:07;;;;;;;24.30;9.70;;;;;;;;;;104787;1302;23908;-78
2023/04/06 00:06:42;;;;;;;21.10;9.10;;;;;;;;;;104863;1302;25348;-78
2023/04/06 00:16:42;;;;;;;15.40;6.60;;;;;;;;;;104787;1295;544733;-78
2023/04/06 00:19:22;;;;;;;;;;;;;;;;;;;;;
2023/04/06 00:21:51;;;;;;;18.30;7.10;;;;;;;;;;106333;1285;22489;-81
2023/04/06 00:24:20;;;;;;;18.10;7.40;;;;;;;;;;106357;1285;25281;-80
2023/04/06 00:27:08;;;;;;;24.10;7.70;;;;;;;;;;106329;1267;24340;-81
2023/04/06 00:29:35;;;;;;;19.80;6.50;;;;;;;;;;104107;1284;2641512;-82
2023/04/06 00:32:02;;;;;;;18.70;6.80;;;;;;;;;;106444;1281;25393;-77
2023/04/06 00:34:29;;;;;;;16.30;6.80;;;;;;;;;;106440;1281;22959;-78
2023/04/06 00:36:56;;;;;;;16.30;6.40;;;;;;;;;;106763;1280;25799;-76
2023/04/06 00:39:32;;;;;;;17.50;6.20;;;;;;;;;;106782;1280;25366;-78
2023/04/06 00:42:00;;;;;;;15.70;5.50;;;;;;;;;;106798;1280;23053;-79
2023/04/06 00:44:29;;;;;;;18.10;6.20;;;;;;;;;;106452;1280;22537;-81
2023/04/06 00:46:59;;;;;;;17.20;6.70;;;;;;;;;;106729;1263;24349;-77
2023/04/06 00:49:26;;;;;;;16.60;7.10;;;;;;;;;;106739;1281;24199;-81
2023/04/06 00:52:14;;;;;;;18.90;7.50;;;;;;;;;;106439;1281;22576;-78
2023/04/06 00:54:44;;;;;;;21.50;8.10;;;;;;;;;;106754;1281;25332;-77
2023/04/06 01:01:01;;;;;;;;;;;;;;;;;;;;;
2023/04/06 01:03:28;;;;;;;17.30;7.30;;;;;;;;;;106370;1281;25507;-78
2023/04/06 01:05:58;;;;;;;16.70;7.30;;;;;;;;;;106632;1281;23912;-79
2023/04/06 01:08:33;;;;;;;29.00;10.10;;;;;;;;;;106725;1279;25336;-77
2023/04/06 01:11:15;;;;;;;30.80;11.10;;;;;;;;;;106744;1279;26506;-76
2023/04/06 01:14:02;;;;;;;34.80;10.30;;;;;;;;;;106820;1279;25327;-75
2023/04/06 01:16:43;;;;;;;31.00;10.50;;;;;;;;;;106689;1265;25322;-79
2023/04/06 01:19:27;;;;;;;30.20;10.20;;;;;;;;;;106546;1280;24111;-78
2023/04/06 01:21:56;;;;;;;33.00;10.30;;;;;;;;;;106751;1280;25224;-77
2023/04/06 01:24:41;;;;;;;28.90;10.50;;;;;;;;;;106719;1268;24261;-82
2023/04/06 01:27:48;;;;;;;26.00;9.00;;;;;;;;;;106553;1275;22523;-78
2023/04/06 01:30:21;;;;;;;27.90;10.10;;;;;;;;;;106796;1279;22674;-76
2023/04/06 01:33:02;;;;;;;24.90;10.10;;;;;;;;;;106774;1279;24270;-76
2023/04/06 01:39:37;;;;;;;23.30;10.70;;;;;;;;;;107043;1264;22533;-81
2023/04/06 01:42:07;;;;;;;22.50;9.60;;;;;;;;;;107224;1272;24787;-76
2023/04/06 01:44:40;;;;;;;26.30;10.90;;;;;;;;;;107180;1272;22606;-81
2023/04/06 01:47:10;;;;;;;29.00;11.70;;;;;;;;;;107246;1272;25284;-76
2023/04/06 01:49:37;;;;;;;24.70;12.10;;;;;;;;;;107067;1257;25325;-79
2023/04/06 01:55:39;;;;;;;21.80;11.50;;;;;;;;;;107162;1273;25284;-79
2023/04/06 01:58:47;;;;;;;20.60;10.40;;;;;;;;;;107151;1254;22524;-80
2023/04/06 02:01:38;;;;;;;18.30;9.90;;;;;;;;;;107106;1272;22511;-79
2023/04/06 02:11:41;;;;;;;15.40;7.90;;;;;;;;;;106718;1262;24207;-78
2023/04/06 02:14:08;;;;;;;15.70;7.70;;;;;;;;;;106697;1280;22526;-77
2023/04/06 02:17:22;;;;;;;19.80;9.00;;;;;;;;;;106284;1285;25244;-79
2023/04/06 02:19:51;;;;;;;24.30;11.60;;;;;;;;;;106305;1265;24420;-81
2023/04/06 02:22:18;;;;;;;21.90;11.50;;;;;;;;;;106349;1285;23879;-78
2023/04/06 02:24:48;;;;;;;20.80;11.30;;;;;;;;;;106302;1285;22790;-81
2023/04/06 02:31:24;;;;;;;20.70;10.60;;;;;;;;;;105901;1290;22598;-77
2023/04/06 02:34:17;;;;;;;22.10;10.40;;;;;;;;;;105736;1290;25289;-77
2023/04/06 02:37:11;;;;;;;16.00;8.80;;;;;;;;;;105890;1290;24252;-79
2023/04/06 02:39:38;;;;;;;29.30;11.30;;;;;;;;;;105876;1291;23039;-76
2023/04/06 02:45:40;;;;;;;26.10;11.60;;;;;;;;;;106157;1280;25346;-78
2023/04/06 02:48:11;;;;;;;27.50;11.50;;;;;;;;;;106186;1286;23995;-81
2023/04/06 02:51:22;;;;;;;28.10;10.70;;;;;;;;;;105738;1273;22684;-79
2023/04/06 02:53:54;;;;;;;24.80;10.90;;;;;;;;;;105769;1287;25147;-79
2023/04/06 02:57:01;;;;;;;27.30;10.70;;;;;;;;;;106110;1287;22623;-81
2023/04/06 03:00:17;;;;;;;28.00;10.90;;;;;;;;;;106013;1287;25435;-78
2023/04/06 03:07:17;;;;;;;;;;;;;;;;;;;;;
2023/04/06 03:09:56;;;;;;;29.90;13.70;;;;;;;;;;105119;1298;22524;-75
2023/04/06 03:13:23;;;;;;;29.40;14.60;;;;;;;;;;105422;1280;24215;-80
2023/04/06 03:15:53;;;;;;;31.10;15.20;;;;;;;;;;105581;1296;24315;-76
2023/04/06 03:18:25;;;;;;;28.60;16.00;;;;;;;;;;105742;1296;25287;-75
2023/04/06 03:20:56;;;;;;;30.20;15.50;;;;;;;;;;105629;1296;25319;-76
2023/04/06 03:23:37;;;;;;;31.20;15.90;;;;;;;;;;105731;1273;25536;-78
2023/04/06 03:26:30;;;;;;;27.90;14.70;;;;;;;;;;105717;1293;25180;-77
2023/04/06 03:29:32;;;;;;;28.20;14.70;;;;;;;;;;105223;1298;25315;-76
2023/04/06 03:38:26;;;;;;;27.80;11.30;;;;;;;;;;104510;1306;24240;-78
2023/04/06 03:52:44;;;;;;;;;;;;;;;;;;;;;
2023/04/06 04:16:36;;;;;;;27.00;13.50;;;;;;;;;;105541;1296;22642;-79
2023/04/06 04:22:28;;;;;;;33.60;15.40;;;;;;;;;;106910;1279;22540;-80
2023/04/06 04:29:51;;;;;;;;;;;;;;;;;;;;;
2023/04/06 04:36:31;;;;;;;;;;;;;;;;;;;;;
2023/04/06 04:39:58;;;;;;;32.20;14.90;;;;;;;;;;105945;1279;25616;-80
2023/04/06 04:47:31;;;;;;;38.60;14.60;;;;;;;;;;105460;1294;22627;-76
2023/04/06 05:13:26;;;;;;;18.80;9.80;;;;;;;;;;105980;1271;22550;-80
2023/04/06 05:25:14;;;;;;;21.80;9.90;;;;;;;;;;106539;1270;25519;-75
2023/04/06 05:31:51;;;;;;;21.70;11.20;;;;;;;;;;106264;1288;22723;-76
2023/04/06 05:35:11;;;;;;;23.40;9.50;;;;;;;;;;105881;1280;24279;-80
2023/04/06 05:38:22;;;;;;;24.60;10.00;;;;;;;;;;105896;1290;25502;-75
2023/04/06 05:41:33;;;;;;;24.20;9.70;;;;;;;;;;105509;1297;22657;-74
2023/04/06 05:48:07;;;;;;;23.20;10.50;;;;;;;;;;103755;1294;544891;-78
2023/04/06 05:50:54;;;;;;;21.80;10.80;;;;;;;;;;106009;1288;25335;-74
2023/04/06 05:53:29;;;;;;;23.50;10.70;;;;;;;;;;105980;1288;25477;-75
2023/04/06 05:59:56;;;;;;;24.90;10.00;;;;;;;;;;106162;1269;25221;-79
2023/04/06 06:09:33;;;;;;;19.10;10.10;;;;;;;;;;105783;1274;24361;-78
2023/04/06 06:12:30;;;;;;;21.40;9.60;;;;;;;;;;106270;1286;24186;-75
2023/04/06 06:15:04;;;;;;;23.50;10.70;;;;;;;;;;106451;1279;23294;-74
2023/04/06 06:18:18;;;;;;;22.20;12.20;;;;;;;;;;106518;1264;23008;-76
2023/04/06 06:21:07;;;;;;;;;;;;;;;;;;;;;
2023/04/06 06:23:55;;;;;;;23.30;12.60;;;;;;;;;;106335;1284;25235;-76
2023/04/06 06:33:00;;;;;;;20.80;10.90;;;;;;;;;;106198;1287;25331;-77
2023/04/06 06:35:28;;;;;;;16.90;8.60;;;;;;;;;;106056;1287;25400;-78
2023/04/06 06:37:55;;;;;;;18.20;9.30;;;;;;;;;;106188;1287;22661;-75
2023/04/06 06:44:19;;;;;;;20.30;9.70;;;;;;;;;;105658;1295;22620;-78
2023/04/06 06:50:48;;;;;;;20.00;10.30;;;;;;;;;;106344;1268;22674;-75
2023/04/06 06:53:20;;;;;;;21.30;11.00;;;;;;;;;;106301;1285;22803;-79
2023/04/06 07:03:56;;;;;;;25.20;12.40;;;;;;;;;;105934;1270;24383;-79
2023/04/06 07:06:23;;;;;;;23.70;11.50;;;;;;;;;;106692;1275;24225;-78
2023/04/06 07:08:50;;;;;;;25.40;11.10;;;;;;;;;;106853;1275;22675;-77
2023/04/06 07:11:36;;;;;;;;;;;;;;;;;;;;;
2023/04/06 07:14:56;;;;;;;19.90;10.80;;;;;;;;;;106438;1276;25128;-75
2023/04/06 07:17:26;;;;;;;21.00;10.70;;;;;;;;;;106657;1276;25234;-75
2023/04/06 07:19:57;;;;;;;22.10;10.60;;;;;;;;;;106779;1259;25318;-76
2023/04/06 07:22:24;;;;;;;27.30;11.90;;;;;;;;;;106860;1275;23695;-80
2023/04/06 07:24:52;;;;;;;26.70;12.00;;;;;;;;;;107211;1275;25221;-75
2023/04/06 07:31:09;;;;;;;26.30;15.20;;;;;;;;;;106830;1276;22459;-75
2023/04/06 07:34:20;;;;;;;31.70;15.30;;;;;;;;;;106603;1281;25357;-78
2023/04/06 07:40:45;;;;;;;29.00;14.50;;;;;;;;;;106082;1268;22546;-79
2023/04/06 07:47:04;;;;;;;25.40;14.00;;;;;;;;;;105774;1293;24208;-81
2023/04/06 07:56:56;;;;;;;28.90;15.70;;;;;;;;;;105594;1276;22520;-79
2023/04/06 08:03:25;;;;;;;25.90;12.90;;;;;;;;;;106345;1267;22662;-79
2023/04/06 08:05:55;;;;;;;21.80;12.90;;;;;;;;;;106254;1285;22650;-79
2023/04/06 08:08:24;;;;;;;25.40;14.30;;;;;;;;;;106616;1278;24357;-79
2023/04/06 08:11:02;;;;;;;24.90;13.90;;;;;;;;;;106811;1278;25233;-79
2023/04/06 08:14:34;;;;;;;25.90;13.90;;;;;;;;;;106907;1259;24250;-77
2023/04/06 08:17:11;;;;;;;20.90;11.60;;;;;;;;;;106880;1276;22943;-76
2023/04/06 08:24:16;;;;;;;21.00;11.80;;;;;;;;;;106354;1275;22523;-79
2023/04/06 08:27:14;;;;;;;;;;;;;;;;;;;;;
2023/04/06 08:33:48;;;;;;;23.50;12.20;;;;;;;;;;105776;1270;22661;-77
2023/04/06 08:36:39;;;;;;;24.50;14.10;;;;;;;;;;105295;1297;25363;-75
2023/04/06 08:43:01;;;;;;;20.80;10.10;;;;;;;;;;104531;1303;22555;-75
2023/04/06 08:50:02;;;;;;;22.60;11.70;;;;;;;;;;104096;1308;22748;-77
2023/04/06 08:52:48;;;;;;;21.00;11.60;;;;;;;;;;107609;1308;22183;-76
2023/04/06 08:55:42;;;;;;;17.50;9.50;;;;;;;;;;107582;1290;22264;-76
2023/04/06 09:01:12;;;;;;;19.00;10.10;;;;;;;;;;107697;1307;22974;-74
2023/04/06 09:03:42;;;;;;;21.40;12.20;;;;;;;;;;107670;1285;21902;-74
2023/04/06 09:06:11;;;;;;;22.00;10.30;;;;;;;;;;107621;1307;22200;-74
2023/04/06 09:08:39;;;;;;;22.00;12.40;;;;;;;;;;107706;1301;22238;-74
2023/04/06 09:11:06;;;;;;;22.20;12.30;;;;;;;;;;108032;1303;22184;-74
2023/04/06 09:13:49;;;;;;;20.80;11.70;;;;;;;;;;108240;1297;22212;-74
2023/04/06 09:16:19;;;;;;;15.50;9.10;;;;;;;;;;108825;1276;22197;-74
2023/04/06 09:18:47;;;;;;;18.70;9.90;;;;;;;;;;108901;1290;22200;-74
2023/04/06 09:21:23;;;;;;;25.40;12.20;;;;;;;;;;109537;1290;22005;-75
2023/04/06 09:24:00;;;;;;;19.50;9.70;;;;;;;;;;109496;1291;22188;-74
2023/04/06 09:26:58;;;;;;;;;;;;;;;;;;;;;
2023/04/06 09:33:31;;;;;;;19.20;10.20;;;;;;;;;;109894;1286;22144;-74
2023/04/06 09:35:58;;;;;;;19.00;10.90;;;;;;;;;;109799;1267;22155;-73
2023/04/06 09:38:25;;;;;;;17.20;10.00;;;;;;;;;;109930;1281;22146;-74
2023/04/06 09:40:52;;;;;;;16.40;10.30;;;;;;;;;;110042;1281;22159;-74
2023/04/06 09:43:31;;;;;;;23.30;10.80;;;;;;;;;;110171;1270;22136;-74
2023/04/06 09:46:02;;;;;;;19.20;10.40;;;;;;;;;;110068;1262;22515;-74
2023/04/06 09:48:31;;;;;;;16.00;9.30;;;;;;;;;;110139;1280;22210;-74
2023/04/06 09:50:59;;;;;;;17.20;10.40;;;;;;;;;;110216;1280;22135;-74
2023/04/06 09:54:00;;;;;;;;;;;;;;;;;;;;;
2023/04/06 09:57:18;;;;;;;20.90;11.10;;;;;;;;;;110077;1268;22134;-74
2023/04/06 10:00:03;;;;;;;17.00;10.90;;;;;;;;;;110042;1281;22185;-75
2023/04/06 10:02:34;;;;;;;20.10;10.40;;;;;;;;;;110055;1281;22999;-75
2023/04/06 10:05:05;;;;;;;17.60;9.90;;;;;;;;;;110102;1281;22746;-75
2023/04/06 10:07:59;;;;;;;16.80;10.30;;;;;;;;;;110107;1275;22102;-75
2023/04/06 10:10:23;;;;;;;17.10;11.40;;;;;;;;;;110582;1276;22312;-74
2023/04/06 10:12:50;;;;;;;19.60;11.60;;;;;;;;;;110307;1276;22965;-74
2023/04/06 10:15:17;;;;;;;16.70;10.80;;;;;;;;;;110560;1266;23006;-75
2023/04/06 10:17:46;;;;;;;15.80;9.70;;;;;;;;;;110270;1262;22101;-75
2023/04/06 10:20:44;;;;;;;16.40;10.10;;;;;;;;;;110251;1277;22116;-74
2023/04/06 10:27:06;;;;;;;24.20;13.30;;;;;;;;;;110408;1259;22927;-75
2023/04/06 10:37:15;;;;;;;42.90;24.80;;;;;;;;;;109854;1267;22367;-75
2023/04/06 10:39:46;;;;;;;33.40;18.90;;;;;;;;;;109785;1287;22846;-75
2023/04/06 10:46:08;;;;;;;29.10;17.70;;;;;;;;;;109547;1267;22095;-75
2023/04/06 10:48:40;;;;;;;25.30;13.30;;;;;;;;;;109514;1287;22194;-75
2023/04/06 10:51:11;;;;;;;26.40;15.70;;;;;;;;;;109534;1290;22161;-81
2023/04/06 10:53:41;;;;;;;21.80;13.50;;;;;;;;;;109398;1290;22126;-75
2023/04/06 10:56:11;;;;;;;39.30;28.90;;;;;;;;;;109482;1268;23377;-76
2023/04/06 10:58:45;;;;;;;23.90;17.80;;;;;;;;;;109522;1291;22242;-75
2023/04/06 11:01:12;;;;;;;21.50;14.00;;;;;;;;;;109254;1292;22187;-75
2023/04/06 11:04:02;;;;;;;;;;;;;;;;;;;;;
2023/04/06 11:06:30;;;;;;;25.90;13.80;;;;;;;;;;109302;1268;22988;-75
2023/04/06 11:16:03;;;;;;;144.50;82.10;;;;;;;;;;109725;1288;22136;-75
2023/04/06 11:18:31;;;;;;;46.20;25.50;;;;;;;;;;109694;1272;22171;-75
2023/04/06 11:21:00;;;;;;;103.10;51.70;;;;;;;;;;109725;1288;23062;-75
2023/04/06 11:23:28;;;;;;;131.70;64.50;;;;;;;;;;109896;1285;22883;-76
2023/04/06 11:25:54;;;;;;;144.60;74.60;;;;;;;;;;109943;1285;22956;-75
2023/04/06 11:28:21;;;;;;;46.70;27.50;;;;;;;;;;110015;1268;22160;-75
2023/04/06 11:30:48;;;;;;;51.40;35.40;;;;;;;;;;109942;1284;22232;-75
2023/04/06 11:33:24;;;;;;;19.00;10.70;;;;;;;;;;109939;1284;22136;-75
2023/04/06 11:35:51;;;;;;;25.40;14.60;;;;;;;;;;109945;1285;22162;-76
2023/04/06 11:38:20;;;;;;;18.80;11.50;;;;;;;;;;109980;1278;22155;-75
2023/04/06 11:40:46;;;;;;;23.30;12.50;;;;;;;;;;109932;1285;23082;-76
2023/04/06 11:43:13;;;;;;;24.50;15.40;;;;;;;;;;109943;1285;22172;-77
2023/04/06 11:45:43;;;;;;;19.90;11.80;;;;;;;;;;109926;1284;22826;-74
2023/04/06 11:48:24;;;;;;;22.30;12.80;;;;;;;;;;109972;1268;22749;-75
2023/04/06 11:50:55;;;;;;;18.10;10.70;;;;;;;;;;110169;1279;22087;-75
2023/04/06 11:53:22;;;;;;;16.00;10.20;;;;;;;;;;110172;1278;22093;-75
2023/04/06 11:55:49;;;;;;;18.50;11.20;;;;;;;;;;110163;1278;22124;-75
2023/04/06 11:58:16;;;;;;;15.10;8.50;;;;;;;;;;110272;1262;22143;-76
2023/04/06 12:00:45;;;;;;;13.60;7.70;;;;;;;;;;110251;1279;22155;-77
2023/04/06 12:03:12;;;;;;;18.30;10.10;;;;;;;;;;110245;1280;22088;-75
2023/04/06 12:05:39;;;;;;;19.30;9.80;;;;;;;;;;110128;1280;22115;-75
2023/04/06 12:08:07;;;;;;;14.90;10.20;;;;;;;;;;110227;1261;22175;-75
2023/04/06 12:10:34;;;;;;;17.10;10.00;;;;;;;;;;110150;1278;22091;-76
2023/04/06 12:13:01;;;;;;;15.90;9.60;;;;;;;;;;110294;1279;22128;-75
2023/04/06 12:15:28;;;;;;;16.10;10.50;;;;;;;;;;110304;1278;22152;-75
2023/04/06 12:17:58;;;;;;;15.50;10.10;;;;;;;;;;110138;1257;22233;-75
2023/04/06 12:20:24;;;;;;;17.40;9.80;;;;;;;;;;110081;1280;22242;-73
2023/04/06 12:22:51;;;;;;;15.70;9.20;;;;;;;;;;110050;1280;22807;-74
2023/04/06 12:25:18;;;;;;;19.50;12.20;;;;;;;;;;110044;1281;22122;-74
2023/04/06 12:27:45;;;;;;;15.50;9.20;;;;;;;;;;110041;1280;22147;-75
2023/04/06 12:30:13;;;;;;;15.70;10.10;;;;;;;;;;110361;1264;22060;-74
2023/04/06 12:32:40;;;;;;;16.50;10.80;;;;;;;;;;110186;1280;22160;-73
2023/04/06 12:35:08;;;;;;;16.40;9.80;;;;;;;;;;110187;1280;21729;-74
2023/04/06 12:37:36;;;;;;;17.00;10.00;;;;;;;;;;110065;1280;22201;-74
2023/04/06 12:40:04;;;;;;;15.90;9.60;;;;;;;;;;110330;1263;22128;-73
2023/04/06 12:42:31;;;;;;;17.00;10.10;;;;;;;;;;110089;1281;22124;-73
2023/04/06 12:44:58;;;;;;;18.50;11.20;;;;;;;;;;110056;1281;22109;-74
2023/04/06 12:47:26;;;;;;;19.30;12.10;;;;;;;;;;110079;1281;22106;-73
2023/04/06 12:49:53;;;;;;;19.10;11.50;;;;;;;;;;110350;1262;22226;-75
2023/04/06 12:52:20;;;;;;;18.90;10.90;;;;;;;;;;110088;1280;22118;-74
2023/04/06 12:54:47;;;;;;;17.30;9.80;;;;;;;;;;110156;1280;22128;-74
2023/04/06 12:57:14;;;;;;;15.70;9.40;;;;;;;;;;110070;1280;22134;-73
2023/04/06 12:59:44;;;;;;;16.60;10.00;;;;;;;;;;110085;1264;22336;-74
2023/04/06 13:02:12;;;;;;;19.20;9.60;;;;;;;;;;109946;1281;22127;-73
2023/04/06 13:04:39;;;;;;;15.60;8.30;;;;;;;;;;110047;1281;22099;-73
2023/04/06 13:07:06;;;;;;;21.90;11.50;;;;;;;;;;110053;1281;22074;-73
2023/04/06 13:09:32;;;;;;;18.50;10.30;;;;;;;;;;110141;1262;22125;-74
2023/04/06 13:12:00;;;;;;;15.20;9.00;;;;;;;;;;110142;1280;22803;-73
2023/04/06 13:14:27;;;;;;;15.70;9.50;;;;;;;;;;110151;1280;22585;-73
2023/04/06 13:16:55;;;;;;;16.10;9.10;;;;;;;;;;110157;1279;22126;-74
2023/04/06 13:19:22;;;;;;;17.00;9.80;;;;;;;;;;110101;1262;22023;-76
2023/04/06 13:21:49;;;;;;;35.50;16.50;;;;;;;;;;110138;1280;22093;-73
2023/04/06 13:24:16;;;;;;;21.40;11.30;;;;;;;;;;110119;1280;21766;-74
2023/04/06 13:26:43;;;;;;;55.60;23.00;;;;;;;;;;110112;1281;22108;-73
2023/04/06 13:29:10;;;;;;;21.90;12.10;;;;;;;;;;110118;1256;22391;-74
2023/04/06 13:31:38;;;;;;;12.80;8.20;;;;;;;;;;110087;1280;22086;-73
2023/04/06 13:34:06;;;;;;;13.20;7.20;;;;;;;;;;110211;1280;22136;-73
2023/04/06 13:36:34;;;;;;;15.20;9.30;;;;;;;;;;110150;1280;22111;-74
2023/04/06 13:39:01;;;;;;;17.50;9.00;;;;;;;;;;110131;1280;22111;-75
2023/04/06 13:41:28;;;;;;;14.80;9.20;;;;;;;;;;110127;1262;22206;-73
2023/04/06 13:43:55;;;;;;;14.10;8.60;;;;;;;;;;110106;1281;22119;-74
2023/04/06 13:46:23;;;;;;;12.70;7.80;;;;;;;;;;110106;1281;23032;-75
2023/04/06 13:48:51;;;;;;;14.60;7.90;;;;;;;;;;110122;1271;22098;-74
2023/04/06 13:51:18;;;;;;;15.60;8.10;;;;;;;;;;110185;1261;22134;-74
2023/04/06 13:53:45;;;;;;;13.90;7.90;;;;;;;;;;110217;1280;22298;-73
2023/04/06 13:56:12;;;;;;;12.90;7.50;;;;;;;;;;110230;1280;22155;-73
2023/04/06 13:58:39;;;;;;;13.70;7.10;;;;;;;;;;110102;1280;22297;-74
2023/04/06 14:01:09;;;;;;;15.60;7.50;;;;;;;;;;110328;1261;22311;-72
2023/04/06 14:03:36;;;;;;;16.90;8.00;;;;;;;;;;110049;1280;22112;-73
2023/04/06 14:06:10;;;;;;;12.30;7.10;;;;;;;;;;110058;1280;22121;-74
2023/04/06 14:08:37;;;;;;;13.10;6.80;;;;;;;;;;110040;1280;22168;-74
2023/04/06 14:11:04;;;;;;;12.40;7.50;;;;;;;;;;110281;1261;22134;-74
2023/04/06 14:13:31;;;;;;;14.80;6.80;;;;;;;;;;110133;1280;22122;-74
2023/04/06 14:15:58;;;;;;;14.00;7.70;;;;;;;;;;110204;1280;22566;-74
2023/04/06 14:18:30;;;;;;;26.60;11.20;;;;;;;;;;110223;1280;22087;-74
2023/04/06 14:20:58;;;;;;;20.90;8.90;;;;;;;;;;110215;1261;22136;-74
2023/04/06 14:23:28;;;;;;;17.00;8.50;;;;;;;;;;110094;1280;22775;-73
2023/04/06 14:26:06;;;;;;;14.00;8.00;;;;;;;;;;110092;1281;22094;-74
2023/04/06 14:28:34;;;;;;;12.40;7.50;;;;;;;;;;110074;1281;22119;-73
2023/04/06 14:31:04;;;;;;;12.40;7.60;;;;;;;;;;110092;1263;22905;-73
2023/04/06 14:33:32;;;;;;;13.60;8.30;;;;;;;;;;110067;1280;22267;-73
2023/04/06 14:36:02;;;;;;;12.90;8.10;;;;;;;;;;110081;1281;22111;-73
2023/04/06 14:38:29;;;;;;;13.50;8.10;;;;;;;;;;110068;1281;22787;-73
2023/04/06 14:40:57;;;;;;;11.90;6.60;;;;;;;;;;110122;1260;22126;-74
2023/04/06 14:43:25;;;;;;;15.80;7.60;;;;;;;;;;110056;1281;22141;-74
2023/04/06 14:45:53;;;;;;;39.40;19.30;;;;;;;;;;110023;1281;22724;-73
2023/04/06 14:48:21;;;;;;;218.10;78.20;;;;;;;;;;110012;1281;22224;-74
2023/04/06 14:50:53;;;;;;;166.70;61.90;;;;;;;;;;110053;1257;22131;-73
2023/04/06 14:53:20;;;;;;;36.70;20.70;;;;;;;;;;110066;1281;22019;-73
2023/04/06 14:55:49;;;;;;;15.00;7.60;;;;;;;;;;110056;1281;22820;-77
2023/04/06 14:58:18;;;;;;;30.50;16.60;;;;;;;;;;110159;1281;22097;-73
2023/04/06 15:00:45;;;;;;;31.00;15.90;;;;;;;;;;110134;1281;22258;-74
2023/04/06 15:03:13;;;;;;;24.90;13.60;;;;;;;;;;110208;1260;22816;-74
2023/04/06 15:05:40;;;;;;;32.30;19.10;;;;;;;;;;110088;1281;22126;-73
2023/04/06 15:08:13;;;;;;;16.10;8.90;;;;;;;;;;110072;1281;22107;-74
2023/04/06 15:10:40;;;;;;;13.30;6.60;;;;;;;;;;110100;1281;22127;-74
2023/04/06 15:13:08;;;;;;;13.10;6.20;;;;;;;;;;110182;1262;22798;-77
2023/04/06 15:15:36;;;;;;;15.90;9.30;;;;;;;;;;110144;1280;22132;-73
2023/04/06 15:18:05;;;;;;;21.90;13.00;;;;;;;;;;110059;1281;22667;-74
2023/04/06 15:20:33;;;;;;;16.50;9.00;;;;;;;;;;110028;1281;22154;-73
2023/04/06 15:23:02;;;;;;;14.00;7.30;;;;;;;;;;110051;1263;22214;-73
2023/04/06 15:25:31;;;;;;;13.70;7.00;;;;;;;;;;110035;1282;22782;-74
2023/04/06 15:28:00;;;;;;;13.10;7.10;;;;;;;;;;109955;1283;22554;-74
2023/04/06 15:30:29;;;;;;;24.50;13.80;;;;;;;;;;110004;1283;22155;-73
2023/04/06 15:33:03;;;;;;;26.80;15.60;;;;;;;;;;110195;1260;22098;-73
2023/04/06 15:35:33;;;;;;;15.80;8.90;;;;;;;;;;110076;1282;22883;-73
2023/04/06 15:38:02;;;;;;;16.20;8.70;;;;;;;;;;110024;1281;22206;-72
2023/04/06 15:40:32;;;;;;;20.50;11.60;;;;;;;;;;110064;1281;22932;-73
2023/04/06 15:43:00;;;;;;;17.50;10.00;;;;;;;;;;110167;1261;22363;-75
2023/04/06 15:45:30;;;;;;;18.90;9.60;;;;;;;;;;110048;1283;22156;-72
2023/04/06 15:47:58;;;;;;;22.50;11.80;;;;;;;;;;110022;1283;22124;-72
2023/04/06 15:50:28;;;;;;;19.00;12.40;;;;;;;;;;110022;1282;22117;-73
2023/04/06 15:52:57;;;;;;;17.00;9.00;;;;;;;;;;110127;1263;22741;-72
2023/04/06 15:55:25;;;;;;;14.00;8.10;;;;;;;;;;110076;1281;22116;-73
2023/04/06 15:57:55;;;;;;;16.40;7.60;;;;;;;;;;110060;1281;22312;-73
2023/04/06 16:00:24;;;;;;;19.70;12.10;;;;;;;;;;110055;1281;22839;-73
2023/04/06 16:02:53;;;;;;;20.80;12.10;;;;;;;;;;110058;1261;22120;-73
2023/04/06 16:05:21;;;;;;;17.20;11.00;;;;;;;;;;109997;1283;22147;-73
2023/04/06 16:07:50;;;;;;;18.90;14.40;;;;;;;;;;110022;1283;22116;-73
2023/04/06 16:10:19;;;;;;;22.90;15.10;;;;;;;;;;109996;1283;22137;-73
2023/04/06 16:12:48;;;;;;;18.50;11.80;;;;;;;;;;110038;1260;22198;-73
2023/04/06 16:15:17;;;;;;;20.50;12.70;;;;;;;;;;110033;1281;22859;-73
2023/04/06 16:17:46;;;;;;;23.90;14.60;;;;;;;;;;110082;1281;22120;-73
2023/04/06 16:20:16;;;;;;;17.80;10.90;;;;;;;;;;110110;1280;22106;-73
2023/04/06 16:22:45;;;;;;;19.50;10.50;;;;;;;;;;110112;1259;22127;-72
2023/04/06 16:32:12;;;;;;;22.00;11.90;;;;;;;;;;104140;1292;544954;-77
2023/04/06 16:34:38;;;;;;;22.00;14.00;;;;;;;;;;106344;1285;22590;-78
2023/04/06 16:37:05;;;;;;;24.70;14.20;;;;;;;;;;106378;1285;22540;-77
2023/04/06 16:39:32;;;;;;;23.30;12.00;;;;;;;;;;106422;1285;22520;-80
2023/04/06 16:42:01;;;;;;;16.50;9.60;;;;;;;;;;106253;1269;22537;-78
2023/04/06 16:44:28;;;;;;;16.20;10.20;;;;;;;;;;106396;1286;25338;-76
2023/04/06 16:46:55;;;;;;;33.20;16.50;;;;;;;;;;104423;1284;2675947;-76
2023/04/06 16:49:22;;;;;;;16.50;9.30;;;;;;;;;;106414;1284;22530;-77
2023/04/06 16:51:48;;;;;;;16.80;7.70;;;;;;;;;;106409;1263;22540;-80
2023/04/06 16:54:15;;;;;;;17.10;8.70;;;;;;;;;;106429;1283;24588;-75
2023/04/06 16:56:42;;;;;;;15.30;7.80;;;;;;;;;;106437;1283;22524;-77
2023/04/06 16:59:09;;;;;;;16.50;9.00;;;;;;;;;;106439;1283;24334;-77
2023/04/06 17:01:36;;;;;;;20.40;10.70;;;;;;;;;;106387;1260;22650;-81
2023/04/06 17:04:03;;;;;;;14.90;8.20;;;;;;;;;;106260;1282;22650;-80
2023/04/06 17:06:30;;;;;;;14.50;7.90;;;;;;;;;;106387;1284;22642;-81
2023/04/06 17:08:58;;;;;;;18.10;9.30;;;;;;;;;;106405;1284;25230;-76
2023/04/06 17:11:25;;;;;;;27.40;13.60;;;;;;;;;;106424;1284;25246;-77
2023/04/06 17:13:52;;;;;;;30.30;14.70;;;;;;;;;;106401;1283;24140;-79
2023/04/06 17:16:20;;;;;;;31.90;17.50;;;;;;;;;;106454;1283;22527;-80
2023/04/06 17:18:47;;;;;;;26.70;16.30;;;;;;;;;;106356;1283;25466;-78
2023/04/06 17:21:15;;;;;;;24.80;13.90;;;;;;;;;;106223;1283;24196;-76
2023/04/06 17:23:43;;;;;;;24.50;13.50;;;;;;;;;;106228;1262;22543;-77
2023/04/06 17:26:10;;;;;;;20.60;11.30;;;;;;;;;;106305;1285;25334;-79
2023/04/06 17:28:37;;;;;;;34.50;20.00;;;;;;;;;;106323;1285;22529;-77
2023/04/06 17:31:09;;;;;;;22.30;11.00;;;;;;;;;;106390;1285;22534;-82
2023/04/06 17:33:36;;;;;;;15.00;7.20;;;;;;;;;;106325;1267;25443;-81
2023/04/06 17:36:03;;;;;;;18.10;9.70;;;;;;;;;;106375;1284;22533;-81
2023/04/06 17:38:31;;;;;;;18.20;8.20;;;;;;;;;;106461;1284;24272;-79
2023/04/06 17:41:00;;;;;;;19.40;8.20;;;;;;;;;;106299;1284;22757;-78
2023/04/06 17:43:27;;;;;;;17.00;7.80;;;;;;;;;;106352;1269;22526;-78
2023/04/06 17:45:54;;;;;;;24.50;8.00;;;;;;;;;;106416;1285;22611;-81
2023/04/06 17:48:21;;;;;;;22.10;10.40;;;;;;;;;;106394;1262;22572;-79
2023/04/06 17:50:47;;;;;;;22.80;10.50;;;;;;;;;;106387;1285;25277;-76
2023/04/06 17:53:17;;;;;;;25.10;10.30;;;;;;;;;;106414;1263;25492;-79
2023/04/06 17:55:46;;;;;;;33.30;13.10;;;;;;;;;;106909;1276;22594;-81
2023/04/06 17:58:13;;;;;;;35.40;18.10;;;;;;;;;;106900;1276;24161;-79
2023/04/06 18:00:40;;;;;;;35.20;21.20;;;;;;;;;;106906;1276;25325;-79
2023/04/06 18:03:07;;;;;;;42.40;22.70;;;;;;;;;;106851;1276;22651;-88
2023/04/06 18:05:35;;;;;;;33.30;16.20;;;;;;;;;;106810;1277;25465;-81
2023/04/06 18:08:01;;;;;;;40.10;17.50;;;;;;;;;;106828;1277;23899;-80
2023/04/06 18:10:28;;;;;;;36.10;16.10;;;;;;;;;;106839;1277;24223;-75
2023/04/06 18:12:56;;;;;;;38.10;17.50;;;;;;;;;;106841;1254;25335;-79
2023/04/06 18:15:22;;;;;;;34.50;16.60;;;;;;;;;;106945;1276;22520;-77
2023/04/06 18:17:52;;;;;;;33.10;15.10;;;;;;;;;;106877;1276;22527;-75
2023/04/06 18:20:27;;;;;;;27.70;14.30;;;;;;;;;;107208;1272;22530;-78
2023/04/06 18:22:57;;;;;;;29.60;14.10;;;;;;;;;;106803;1277;22769;-76
2023/04/06 18:25:25;;;;;;;26.50;13.90;;;;;;;;;;106620;1279;23016;-77
2023/04/06 18:27:52;;;;;;;25.00;13.90;;;;;;;;;;106606;1279;24198;-81
2023/04/06 18:30:52;;;;;;;23.80;12.40;;;;;;;;;;106590;1281;23775;-75
2023/04/06 18:36:44;;;;;;;29.70;14.40;;;;;;;;;;106887;1276;24378;-75
2023/04/06 18:39:11;;;;;;;29.70;13.40;;;;;;;;;;106754;1276;24257;-75
2023/04/06 18:41:38;;;;;;;33.00;14.50;;;;;;;;;;106871;1277;24413;-75
2023/04/06 18:44:05;;;;;;;30.60;15.60;;;;;;;;;;107020;1257;22645;-76
2023/04/06 18:46:33;;;;;;;33.90;16.20;;;;;;;;;;106996;1276;22525;-80
2023/04/06 18:49:02;;;;;;;35.30;17.20;;;;;;;;;;107077;1276;22715;-76
2023/04/06 18:51:33;;;;;;;32.00;15.60;;;;;;;;;;106993;1276;24347;-77
2023/04/06 18:54:03;;;;;;;32.70;15.80;;;;;;;;;;107003;1256;22621;-79
2023/04/06 18:56:55;;;;;;;33.30;16.20;;;;;;;;;;107018;1276;25297;-77
2023/04/06 18:59:23;;;;;;;33.40;14.10;;;;;;;;;;106839;1276;23913;-79
2023/04/06 19:02:14;;;;;;;33.00;14.90;;;;;;;;;;107027;1276;22738;-79
2023/04/06 19:04:41;;;;;;;36.30;15.00;;;;;;;;;;107021;1258;24190;-75